sensor_id;sensor_type;location;lat;lon;timestamp;P1;durP1;ratioP1;P2;durP2;ratioP2
25653;SDS011;13511;48.622;9.230;2022-09-06T00:00:31;5.53;;;5.13;;
25653;SDS011;13511;48.622;9.230;2022-09-06T00:02:58;7.20;;;5.45;;
25653;SDS011;13511;48.622;9.230;2022-09-06T00:05:25;6.85;;;5.03;;
25653;SDS011;13511;48.622;9.230;2022-09-06T00:07:51;6.97;;;5.38;;
25653;SDS011;13511;48.622;9.230;2022-09-06T00:10:17;7.20;;;5.60;;
25653;SDS011;13511;48.622;9.230;2022-09-06T00:12:43;7.90;;;5.60;;
25653;SDS011;13511;48.622;9.230;2022-09-06T00:15:09;6.82;;;5.07;;
25653;SDS011;13511;48.622;9.230;2022-09-06T00:17:35;7.32;;;6.50;;
25653;SDS011;13511;48.622;9.230;2022-09-06T00:20:02;6.13;;;5.53;;
25653;SDS011;13511;48.622;9.230;2022-09-06T00:22:28;5.82;;;5.15;;
25653;SDS011;13511;48.622;9.230;2022-09-06T00:24:54;5.25;;;4.75;;
25653;SDS011;13511;48.622;9.230;2022-09-06T00:27:21;5.90;;;5.50;;
25653;SDS011;13511;48.622;9.230;2022-09-06T00:29:47;6.80;;;5.13;;
25653;SDS011;13511;48.622;9.230;2022-09-06T00:32:13;6.30;;;5.20;;
25653;SDS011;13511;48.622;9.230;2022-09-06T00:34:39;6.90;;;5.20;;
25653;SDS011;13511;48.622;9.230;2022-09-06T00:37:06;5.65;;;4.93;;
25653;SDS011;13511;48.622;9.230;2022-09-06T00:39:32;6.32;;;5.82;;
25653;SDS011;13511;48.622;9.230;2022-09-06T00:41:58;5.60;;;5.20;;
25653;SDS011;13511;48.622;9.230;2022-09-06T00:44:24;5.82;;;5.30;;
25653;SDS011;13511;48.622;9.230;2022-09-06T00:46:51;6.28;;;5.30;;
25653;SDS011;13511;48.622;9.230;2022-09-06T00:49:25;6.50;;;5.43;;
25653;SDS011;13511;48.622;9.230;2022-09-06T00:51:53;8.40;;;5.45;;
25653;SDS011;13511;48.622;9.230;2022-09-06T00:54:20;5.47;;;5.10;;
25653;SDS011;13511;48.622;9.230;2022-09-06T00:56:46;5.65;;;5.05;;
25653;SDS011;13511;48.622;9.230;2022-09-06T00:59:13;6.53;;;4.75;;
25653;SDS011;13511;48.622;9.230;2022-09-06T01:01:39;6.85;;;5.43;;
25653;SDS011;13511;48.622;9.230;2022-09-06T01:04:05;6.13;;;5.63;;
25653;SDS011;13511;48.622;9.230;2022-09-06T01:06:39;6.15;;;5.82;;
25653;SDS011;13511;48.622;9.230;2022-09-06T01:24:52;8.25;;;5.70;;
25653;SDS011;13511;48.622;9.230;2022-09-06T01:35:39;7.97;;;5.80;;
25653;SDS011;13511;48.622;9.230;2022-09-06T01:37:44;6.20;;;5.68;;
25653;SDS011;13511;48.622;9.230;2022-09-06T01:40:10;16.52;;;5.63;;
25653;SDS011;13511;48.622;9.230;2022-09-06T01:42:36;6.93;;;5.50;;
25653;SDS011;13511;48.622;9.230;2022-09-06T01:45:04;5.90;;;5.45;;
25653;SDS011;13511;48.622;9.230;2022-09-06T01:50:11;5.70;;;5.20;;
25653;SDS011;13511;48.622;9.230;2022-09-06T01:55:20;6.13;;;5.68;;
25653;SDS011;13511;48.622;9.230;2022-09-06T02:00:29;7.60;;;5.68;;
25653;SDS011;13511;48.622;9.230;2022-09-06T02:07:55;5.93;;;5.05;;
25653;SDS011;13511;48.622;9.230;2022-09-06T02:10:24;6.13;;;5.55;;
25653;SDS011;13511;48.622;9.230;2022-09-06T02:12:52;6.10;;;5.70;;
25653;SDS011;13511;48.622;9.230;2022-09-06T02:15:23;6.60;;;5.85;;
25653;SDS011;13511;48.622;9.230;2022-09-06T02:20:18;9.73;;;5.60;;
25653;SDS011;13511;48.622;9.230;2022-09-06T02:22:45;7.35;;;5.47;;
25653;SDS011;13511;48.622;9.230;2022-09-06T02:25:15;8.88;;;5.90;;
25653;SDS011;13511;48.622;9.230;2022-09-06T02:27:43;13.70;;;6.35;;
25653;SDS011;13511;48.622;9.230;2022-09-06T02:30:09;6.43;;;5.28;;
25653;SDS011;13511;48.622;9.230;2022-09-06T02:32:38;5.95;;;5.20;;
25653;SDS011;13511;48.622;9.230;2022-09-06T02:35:06;5.63;;;5.03;;
25653;SDS011;13511;48.622;9.230;2022-09-06T02:37:33;8.63;;;5.85;;
25653;SDS011;13511;48.622;9.230;2022-09-06T02:39:59;6.50;;;6.00;;
25653;SDS011;13511;48.622;9.230;2022-09-06T02:42:25;6.50;;;5.93;;
25653;SDS011;13511;48.622;9.230;2022-09-06T02:44:51;8.70;;;5.65;;
25653;SDS011;13511;48.622;9.230;2022-09-06T02:47:17;9.38;;;5.80;;
25653;SDS011;13511;48.622;9.230;2022-09-06T02:49:43;6.10;;;5.55;;
25653;SDS011;13511;48.622;9.230;2022-09-06T02:52:09;8.85;;;5.57;;
25653;SDS011;13511;48.622;9.230;2022-09-06T02:54:35;6.32;;;5.75;;
25653;SDS011;13511;48.622;9.230;2022-09-06T02:57:02;5.97;;;5.47;;
25653;SDS011;13511;48.622;9.230;2022-09-06T02:59:28;8.45;;;5.35;;
25653;SDS011;13511;48.622;9.230;2022-09-06T03:01:54;6.28;;;5.70;;
25653;SDS011;13511;48.622;9.230;2022-09-06T03:04:20;6.55;;;5.53;;
25653;SDS011;13511;48.622;9.230;2022-09-06T03:06:46;6.57;;;5.72;;
25653;SDS011;13511;48.622;9.230;2022-09-06T03:09:12;6.88;;;5.90;;
25653;SDS011;13511;48.622;9.230;2022-09-06T03:11:38;5.78;;;5.38;;
25653;SDS011;13511;48.622;9.230;2022-09-06T03:14:05;6.55;;;4.93;;
25653;SDS011;13511;48.622;9.230;2022-09-06T03:16:31;6.25;;;5.68;;
25653;SDS011;13511;48.622;9.230;2022-09-06T03:18:57;11.15;;;6.45;;
25653;SDS011;13511;48.622;9.230;2022-09-06T03:21:23;6.03;;;5.43;;
25653;SDS011;13511;48.622;9.230;2022-09-06T03:23:49;11.10;;;6.53;;
25653;SDS011;13511;48.622;9.230;2022-09-06T03:26:16;6.72;;;5.40;;
25653;SDS011;13511;48.622;9.230;2022-09-06T03:28:42;8.32;;;6.05;;
25653;SDS011;13511;48.622;9.230;2022-09-06T03:31:08;7.07;;;6.47;;
25653;SDS011;13511;48.622;9.230;2022-09-06T03:33:34;16.08;;;5.50;;
25653;SDS011;13511;48.622;9.230;2022-09-06T03:36:00;6.13;;;5.60;;
25653;SDS011;13511;48.622;9.230;2022-09-06T03:38:27;6.63;;;5.53;;
25653;SDS011;13511;48.622;9.230;2022-09-06T03:40:53;7.80;;;5.38;;
25653;SDS011;13511;48.622;9.230;2022-09-06T03:43:20;8.02;;;6.18;;
25653;SDS011;13511;48.622;9.230;2022-09-06T03:45:47;7.97;;;7.05;;
25653;SDS011;13511;48.622;9.230;2022-09-06T03:48:13;5.95;;;5.45;;
25653;SDS011;13511;48.622;9.230;2022-09-06T03:50:44;6.60;;;5.85;;
25653;SDS011;13511;48.622;9.230;2022-09-06T03:53:10;7.28;;;5.75;;
25653;SDS011;13511;48.622;9.230;2022-09-06T03:55:36;8.48;;;6.13;;
25653;SDS011;13511;48.622;9.230;2022-09-06T03:58:02;6.85;;;5.93;;
25653;SDS011;13511;48.622;9.230;2022-09-06T04:00:28;8.73;;;5.85;;
25653;SDS011;13511;48.622;9.230;2022-09-06T04:02:54;6.22;;;5.80;;
25653;SDS011;13511;48.622;9.230;2022-09-06T04:05:20;7.70;;;6.57;;
25653;SDS011;13511;48.622;9.230;2022-09-06T04:07:46;7.03;;;6.50;;
25653;SDS011;13511;48.622;9.230;2022-09-06T04:10:12;7.40;;;6.57;;
25653;SDS011;13511;48.622;9.230;2022-09-06T04:12:38;7.78;;;6.97;;
25653;SDS011;13511;48.622;9.230;2022-09-06T04:15:04;8.55;;;6.03;;
25653;SDS011;13511;48.622;9.230;2022-09-06T04:17:30;8.05;;;7.30;;
25653;SDS011;13511;48.622;9.230;2022-09-06T04:19:56;6.47;;;6.07;;
25653;SDS011;13511;48.622;9.230;2022-09-06T04:22:22;6.93;;;6.20;;
25653;SDS011;13511;48.622;9.230;2022-09-06T04:24:48;7.18;;;6.13;;
25653;SDS011;13511;48.622;9.230;2022-09-06T04:27:14;9.57;;;6.05;;
25653;SDS011;13511;48.622;9.230;2022-09-06T04:29:40;9.25;;;6.43;;
25653;SDS011;13511;48.622;9.230;2022-09-06T04:32:06;6.95;;;6.20;;
25653;SDS011;13511;48.622;9.230;2022-09-06T04:34:32;12.88;;;7.28;;
25653;SDS011;13511;48.622;9.230;2022-09-06T04:36:58;10.30;;;7.47;;
25653;SDS011;13511;48.622;9.230;2022-09-06T04:39:24;6.80;;;6.30;;
25653;SDS011;13511;48.622;9.230;2022-09-06T04:41:50;5.95;;;5.50;;
25653;SDS011;13511;48.622;9.230;2022-09-06T04:44:16;7.65;;;6.72;;
25653;SDS011;13511;48.622;9.230;2022-09-06T04:46:42;6.05;;;5.75;;
25653;SDS011;13511;48.622;9.230;2022-09-06T04:49:08;7.00;;;5.93;;
25653;SDS011;13511;48.622;9.230;2022-09-06T04:51:34;9.65;;;6.82;;
25653;SDS011;13511;48.622;9.230;2022-09-06T04:54:03;7.65;;;6.90;;
25653;SDS011;13511;48.622;9.230;2022-09-06T04:56:29;11.18;;;6.97;;
25653;SDS011;13511;48.622;9.230;2022-09-06T04:58:55;6.82;;;6.13;;
25653;SDS011;13511;48.622;9.230;2022-09-06T05:01:21;7.65;;;6.57;;
25653;SDS011;13511;48.622;9.230;2022-09-06T05:03:47;9.00;;;6.95;;
25653;SDS011;13511;48.622;9.230;2022-09-06T05:06:17;12.57;;;7.43;;
25653;SDS011;13511;48.622;9.230;2022-09-06T05:08:44;6.32;;;5.82;;
25653;SDS011;13511;48.622;9.230;2022-09-06T05:11:11;6.70;;;5.70;;
25653;SDS011;13511;48.622;9.230;2022-09-06T05:13:37;12.38;;;6.50;;
25653;SDS011;13511;48.622;9.230;2022-09-06T05:16:04;7.13;;;6.50;;
25653;SDS011;13511;48.622;9.230;2022-09-06T05:18:30;8.38;;;6.22;;
25653;SDS011;13511;48.622;9.230;2022-09-06T05:20:56;6.55;;;5.95;;
25653;SDS011;13511;48.622;9.230;2022-09-06T05:23:23;8.27;;;6.30;;
25653;SDS011;13511;48.622;9.230;2022-09-06T05:25:49;11.55;;;7.28;;
25653;SDS011;13511;48.622;9.230;2022-09-06T05:28:15;9.60;;;6.88;;
25653;SDS011;13511;48.622;9.230;2022-09-06T05:30:41;7.30;;;6.30;;
25653;SDS011;13511;48.622;9.230;2022-09-06T05:33:08;8.32;;;5.97;;
25653;SDS011;13511;48.622;9.230;2022-09-06T05:35:34;7.40;;;6.15;;
25653;SDS011;13511;48.622;9.230;2022-09-06T05:38:00;7.03;;;5.80;;
25653;SDS011;13511;48.622;9.230;2022-09-06T05:40:26;8.25;;;6.18;;
25653;SDS011;13511;48.622;9.230;2022-09-06T05:42:52;14.98;;;7.35;;
25653;SDS011;13511;48.622;9.230;2022-09-06T05:45:18;6.43;;;5.82;;
25653;SDS011;13511;48.622;9.230;2022-09-06T05:47:44;6.40;;;5.80;;
25653;SDS011;13511;48.622;9.230;2022-09-06T05:50:11;7.00;;;5.93;;
25653;SDS011;13511;48.622;9.230;2022-09-06T05:52:37;8.85;;;6.55;;
25653;SDS011;13511;48.622;9.230;2022-09-06T05:55:04;6.70;;;6.30;;
25653;SDS011;13511;48.622;9.230;2022-09-06T05:57:30;7.22;;;6.43;;
25653;SDS011;13511;48.622;9.230;2022-09-06T05:59:56;7.10;;;6.47;;
25653;SDS011;13511;48.622;9.230;2022-09-06T06:02:22;8.00;;;6.28;;
25653;SDS011;13511;48.622;9.230;2022-09-06T06:04:49;7.43;;;6.70;;
25653;SDS011;13511;48.622;9.230;2022-09-06T06:07:15;11.98;;;7.60;;
25653;SDS011;13511;48.622;9.230;2022-09-06T06:09:42;6.78;;;6.35;;
25653;SDS011;13511;48.622;9.230;2022-09-06T06:12:08;7.18;;;6.38;;
25653;SDS011;13511;48.622;9.230;2022-09-06T06:14:34;6.72;;;5.90;;
25653;SDS011;13511;48.622;9.230;2022-09-06T06:17:00;7.10;;;6.43;;
25653;SDS011;13511;48.622;9.230;2022-09-06T06:19:26;8.93;;;6.10;;
25653;SDS011;13511;48.622;9.230;2022-09-06T06:21:53;5.47;;;5.13;;
25653;SDS011;13511;48.622;9.230;2022-09-06T06:24:20;19.00;;;6.60;;
25653;SDS011;13511;48.622;9.230;2022-09-06T06:26:46;7.00;;;6.40;;
25653;SDS011;13511;48.622;9.230;2022-09-06T06:29:12;10.30;;;7.03;;
25653;SDS011;13511;48.622;9.230;2022-09-06T06:31:38;8.88;;;7.50;;
25653;SDS011;13511;48.622;9.230;2022-09-06T06:34:05;7.50;;;6.90;;
25653;SDS011;13511;48.622;9.230;2022-09-06T06:36:32;7.18;;;6.53;;
25653;SDS011;13511;48.622;9.230;2022-09-06T06:38:58;11.73;;;6.60;;
25653;SDS011;13511;48.622;9.230;2022-09-06T06:41:25;11.45;;;7.00;;
25653;SDS011;13511;48.622;9.230;2022-09-06T06:43:52;8.32;;;6.53;;
25653;SDS011;13511;48.622;9.230;2022-09-06T06:46:19;7.82;;;7.03;;
25653;SDS011;13511;48.622;9.230;2022-09-06T06:48:45;12.10;;;7.78;;
25653;SDS011;13511;48.622;9.230;2022-09-06T06:51:12;8.60;;;7.20;;
25653;SDS011;13511;48.622;9.230;2022-09-06T06:53:38;8.23;;;7.20;;
25653;SDS011;13511;48.622;9.230;2022-09-06T06:58:40;7.88;;;6.88;;
25653;SDS011;13511;48.622;9.230;2022-09-06T07:01:06;6.95;;;6.43;;
25653;SDS011;13511;48.622;9.230;2022-09-06T07:03:33;9.38;;;7.22;;
25653;SDS011;13511;48.622;9.230;2022-09-06T07:06:00;7.95;;;6.82;;
25653;SDS011;13511;48.622;9.230;2022-09-06T07:08:26;9.65;;;7.15;;
25653;SDS011;13511;48.622;9.230;2022-09-06T07:10:52;6.85;;;6.25;;
25653;SDS011;13511;48.622;9.230;2022-09-06T07:13:18;7.35;;;6.53;;
25653;SDS011;13511;48.622;9.230;2022-09-06T07:15:44;8.32;;;6.75;;
25653;SDS011;13511;48.622;9.230;2022-09-06T07:18:10;8.85;;;6.28;;
25653;SDS011;13511;48.622;9.230;2022-09-06T07:20:36;11.35;;;6.45;;
25653;SDS011;13511;48.622;9.230;2022-09-06T07:23:03;6.40;;;5.88;;
25653;SDS011;13511;48.622;9.230;2022-09-06T07:25:30;11.75;;;6.82;;
25653;SDS011;13511;48.622;9.230;2022-09-06T07:28:00;6.72;;;6.13;;
25653;SDS011;13511;48.622;9.230;2022-09-06T07:30:27;8.20;;;6.10;;
25653;SDS011;13511;48.622;9.230;2022-09-06T07:32:55;11.02;;;6.00;;
25653;SDS011;13511;48.622;9.230;2022-09-06T07:35:21;7.07;;;6.38;;
25653;SDS011;13511;48.622;9.230;2022-09-06T07:37:50;9.48;;;6.10;;
25653;SDS011;13511;48.622;9.230;2022-09-06T07:40:16;6.40;;;5.90;;
25653;SDS011;13511;48.622;9.230;2022-09-06T07:42:42;5.75;;;5.25;;
25653;SDS011;13511;48.622;9.230;2022-09-06T07:45:08;8.57;;;5.85;;
25653;SDS011;13511;48.622;9.230;2022-09-06T07:47:34;5.88;;;5.38;;
25653;SDS011;13511;48.622;9.230;2022-09-06T07:50:00;6.75;;;5.53;;
25653;SDS011;13511;48.622;9.230;2022-09-06T07:52:26;5.68;;;5.28;;
25653;SDS011;13511;48.622;9.230;2022-09-06T07:54:52;5.78;;;5.28;;
25653;SDS011;13511;48.622;9.230;2022-09-06T07:57:20;6.68;;;5.68;;
25653;SDS011;13511;48.622;9.230;2022-09-06T07:59:47;6.10;;;5.45;;
25653;SDS011;13511;48.622;9.230;2022-09-06T08:02:13;5.45;;;4.82;;
25653;SDS011;13511;48.622;9.230;2022-09-06T08:04:40;6.45;;;5.28;;
25653;SDS011;13511;48.622;9.230;2022-09-06T08:07:06;7.03;;;5.10;;
25653;SDS011;13511;48.622;9.230;2022-09-06T08:09:32;8.75;;;5.80;;
25653;SDS011;13511;48.622;9.230;2022-09-06T08:11:58;5.53;;;5.03;;
25653;SDS011;13511;48.622;9.230;2022-09-06T08:14:30;5.30;;;4.80;;
25653;SDS011;13511;48.622;9.230;2022-09-06T08:16:56;5.20;;;4.80;;
25653;SDS011;13511;48.622;9.230;2022-09-06T08:19:22;11.05;;;5.45;;
25653;SDS011;13511;48.622;9.230;2022-09-06T08:21:48;6.57;;;5.95;;
25653;SDS011;13511;48.622;9.230;2022-09-06T08:24:14;5.53;;;5.07;;
25653;SDS011;13511;48.622;9.230;2022-09-06T08:26:40;7.78;;;4.95;;
25653;SDS011;13511;48.622;9.230;2022-09-06T08:29:07;5.53;;;5.13;;
25653;SDS011;13511;48.622;9.230;2022-09-06T08:31:35;5.28;;;4.85;;
25653;SDS011;13511;48.622;9.230;2022-09-06T08:34:01;6.25;;;5.43;;
25653;SDS011;13511;48.622;9.230;2022-09-06T08:36:27;5.50;;;5.10;;
25653;SDS011;13511;48.622;9.230;2022-09-06T08:38:57;5.70;;;5.28;;
25653;SDS011;13511;48.622;9.230;2022-09-06T08:44:01;6.93;;;5.05;;
25653;SDS011;13511;48.622;9.230;2022-09-06T08:46:30;5.47;;;4.95;;
25653;SDS011;13511;48.622;9.230;2022-09-06T08:48:57;5.75;;;5.30;;
25653;SDS011;13511;48.622;9.230;2022-09-06T08:53:52;6.68;;;6.00;;
25653;SDS011;13511;48.622;9.230;2022-09-06T08:56:24;8.40;;;5.97;;
25653;SDS011;13511;48.622;9.230;2022-09-06T08:59:03;10.30;;;5.57;;
25653;SDS011;13511;48.622;9.230;2022-09-06T09:04:14;6.70;;;6.07;;
25653;SDS011;13511;48.622;9.230;2022-09-06T09:06:42;6.32;;;5.78;;
25653;SDS011;13511;48.622;9.230;2022-09-06T09:09:11;6.68;;;6.10;;
25653;SDS011;13511;48.622;9.230;2022-09-06T09:11:39;7.35;;;6.03;;
25653;SDS011;13511;48.622;9.230;2022-09-06T09:14:07;5.32;;;4.97;;
25653;SDS011;13511;48.622;9.230;2022-09-06T09:16:37;6.47;;;5.93;;
25653;SDS011;13511;48.622;9.230;2022-09-06T09:19:03;6.18;;;5.65;;
25653;SDS011;13511;48.622;9.230;2022-09-06T09:21:31;9.90;;;6.38;;
25653;SDS011;13511;48.622;9.230;2022-09-06T09:24:01;10.77;;;6.10;;
25653;SDS011;13511;48.622;9.230;2022-09-06T09:26:30;11.10;;;7.50;;
25653;SDS011;13511;48.622;9.230;2022-09-06T09:29:00;7.85;;;6.30;;
25653;SDS011;13511;48.622;9.230;2022-09-06T09:31:36;9.05;;;6.70;;
25653;SDS011;13511;48.622;9.230;2022-09-06T09:34:02;13.90;;;6.13;;
25653;SDS011;13511;48.622;9.230;2022-09-06T09:36:29;6.15;;;5.60;;
25653;SDS011;13511;48.622;9.230;2022-09-06T09:38:55;7.72;;;5.88;;
25653;SDS011;13511;48.622;9.230;2022-09-06T09:41:32;6.78;;;6.18;;
25653;SDS011;13511;48.622;9.230;2022-09-06T09:44:02;9.73;;;5.97;;
25653;SDS011;13511;48.622;9.230;2022-09-06T09:46:30;9.93;;;6.00;;
25653;SDS011;13511;48.622;9.230;2022-09-06T09:51:30;10.13;;;6.22;;
25653;SDS011;13511;48.622;9.230;2022-09-06T09:53:57;14.80;;;5.78;;
25653;SDS011;13511;48.622;9.230;2022-09-06T09:56:33;9.45;;;6.00;;
25653;SDS011;13511;48.622;9.230;2022-09-06T09:59:00;8.90;;;5.78;;
25653;SDS011;13511;48.622;9.230;2022-09-06T10:01:28;11.57;;;7.13;;
25653;SDS011;13511;48.622;9.230;2022-09-06T10:04:07;10.75;;;6.05;;
25653;SDS011;13511;48.622;9.230;2022-09-06T10:06:34;8.90;;;5.70;;
25653;SDS011;13511;48.622;9.230;2022-09-06T10:09:11;10.07;;;5.93;;
25653;SDS011;13511;48.622;9.230;2022-09-06T10:11:39;7.25;;;5.55;;
25653;SDS011;13511;48.622;9.230;2022-09-06T10:14:09;7.90;;;5.88;;
25653;SDS011;13511;48.622;9.230;2022-09-06T10:16:42;10.10;;;5.90;;
25653;SDS011;13511;48.622;9.230;2022-09-06T10:21:55;6.03;;;5.43;;
25653;SDS011;13511;48.622;9.230;2022-09-06T10:24:48;19.50;;;6.30;;
25653;SDS011;13511;48.622;9.230;2022-09-06T10:27:10;8.68;;;6.07;;
25653;SDS011;13511;48.622;9.230;2022-09-06T10:29:44;10.50;;;6.35;;
25653;SDS011;13511;48.622;9.230;2022-09-06T10:39:54;12.35;;;6.05;;
25653;SDS011;13511;48.622;9.230;2022-09-06T10:47:31;10.13;;;6.25;;
25653;SDS011;13511;48.622;9.230;2022-09-06T10:50:00;11.00;;;6.28;;
25653;SDS011;13511;48.622;9.230;2022-09-06T10:52:33;9.63;;;6.63;;
25653;SDS011;13511;48.622;9.230;2022-09-06T10:55:01;11.25;;;6.32;;
25653;SDS011;13511;48.622;9.230;2022-09-06T10:57:38;8.85;;;6.47;;
25653;SDS011;13511;48.622;9.230;2022-09-06T11:00:07;12.05;;;6.07;;
25653;SDS011;13511;48.622;9.230;2022-09-06T11:05:25;15.88;;;6.13;;
25653;SDS011;13511;48.622;9.230;2022-09-06T11:07:55;12.07;;;6.47;;
25653;SDS011;13511;48.622;9.230;2022-09-06T11:10:23;8.57;;;5.88;;
25653;SDS011;13511;48.622;9.230;2022-09-06T11:12:53;10.73;;;5.95;;
25653;SDS011;13511;48.622;9.230;2022-09-06T11:15:22;9.98;;;6.07;;
25653;SDS011;13511;48.622;9.230;2022-09-06T11:18:04;12.80;;;6.65;;
25653;SDS011;13511;48.622;9.230;2022-09-06T11:23:01;13.85;;;7.05;;
25653;SDS011;13511;48.622;9.230;2022-09-06T11:28:45;11.70;;;5.95;;
25653;SDS011;13511;48.622;9.230;2022-09-06T11:31:10;9.93;;;6.10;;
25653;SDS011;13511;48.622;9.230;2022-09-06T11:33:38;10.13;;;6.18;;
25653;SDS011;13511;48.622;9.230;2022-09-06T11:37:06;9.63;;;6.15;;
25653;SDS011;13511;48.622;9.230;2022-09-06T11:39:00;11.02;;;6.05;;
25653;SDS011;13511;48.622;9.230;2022-09-06T11:41:34;15.60;;;6.53;;
25653;SDS011;13511;48.622;9.230;2022-09-06T11:44:02;8.20;;;6.05;;
25653;SDS011;13511;48.622;9.230;2022-09-06T11:49:02;12.45;;;6.25;;
25653;SDS011;13511;48.622;9.230;2022-09-06T11:51:38;8.52;;;6.10;;
25653;SDS011;13511;48.622;9.230;2022-09-06T11:54:08;7.72;;;5.85;;
25653;SDS011;13511;48.622;9.230;2022-09-06T12:01:58;12.27;;;6.00;;
25653;SDS011;13511;48.622;9.230;2022-09-06T12:04:25;6.83;;;5.90;;
25653;SDS011;13511;48.622;9.230;2022-09-06T12:07:10;8.80;;;5.75;;
25653;SDS011;13511;48.622;9.230;2022-09-06T12:09:38;12.77;;;5.78;;
25653;SDS011;13511;48.622;9.230;2022-09-06T12:12:04;12.70;;;5.65;;
25653;SDS011;13511;48.622;9.230;2022-09-06T12:14:31;9.13;;;6.50;;
25653;SDS011;13511;48.622;9.230;2022-09-06T12:27:23;7.90;;;5.25;;
25653;SDS011;13511;48.622;9.230;2022-09-06T12:32:19;11.00;;;6.18;;
25653;SDS011;13511;48.622;9.230;2022-09-06T12:34:46;8.82;;;5.40;;
25653;SDS011;13511;48.622;9.230;2022-09-06T12:37:12;7.20;;;5.72;;
25653;SDS011;13511;48.622;9.230;2022-09-06T12:39:38;8.77;;;5.57;;
25653;SDS011;13511;48.622;9.230;2022-09-06T12:42:14;11.05;;;5.13;;
25653;SDS011;13511;48.622;9.230;2022-09-06T12:44:42;11.70;;;5.38;;
25653;SDS011;13511;48.622;9.230;2022-09-06T12:47:15;9.02;;;5.18;;
25653;SDS011;13511;48.622;9.230;2022-09-06T12:49:44;10.63;;;5.78;;
25653;SDS011;13511;48.622;9.230;2022-09-06T12:52:14;9.50;;;5.35;;
25653;SDS011;13511;48.622;9.230;2022-09-06T12:54:45;9.55;;;5.38;;
25653;SDS011;13511;48.622;9.230;2022-09-06T12:57:20;6.20;;;5.10;;
25653;SDS011;13511;48.622;9.230;2022-09-06T12:59:50;13.00;;;5.80;;
25653;SDS011;13511;48.622;9.230;2022-09-06T13:02:40;9.13;;;6.28;;
25653;SDS011;13511;48.622;9.230;2022-09-06T13:05:05;14.07;;;5.55;;
25653;SDS011;13511;48.622;9.230;2022-09-06T13:07:32;12.15;;;6.60;;
25653;SDS011;13511;48.622;9.230;2022-09-06T13:09:59;13.48;;;5.60;;
25653;SDS011;13511;48.622;9.230;2022-09-06T13:12:36;8.77;;;5.35;;
25653;SDS011;13511;48.622;9.230;2022-09-06T13:15:07;7.53;;;5.70;;
25653;SDS011;13511;48.622;9.230;2022-09-06T13:17:36;9.57;;;5.57;;
25653;SDS011;13511;48.622;9.230;2022-09-06T13:20:10;12.68;;;5.63;;
25653;SDS011;13511;48.622;9.230;2022-09-06T13:22:40;8.00;;;5.35;;
25653;SDS011;13511;48.622;9.230;2022-09-06T13:25:28;12.52;;;5.90;;
25653;SDS011;13511;48.622;9.230;2022-09-06T13:27:54;9.27;;;5.60;;
25653;SDS011;13511;48.622;9.230;2022-09-06T13:30:38;8.40;;;5.47;;
25653;SDS011;13511;48.622;9.230;2022-09-06T13:33:23;9.40;;;5.43;;
25653;SDS011;13511;48.622;9.230;2022-09-06T13:35:50;9.43;;;5.15;;
25653;SDS011;13511;48.622;9.230;2022-09-06T13:38:17;11.30;;;5.25;;
25653;SDS011;13511;48.622;9.230;2022-09-06T13:40:44;8.07;;;5.45;;
25653;SDS011;13511;48.622;9.230;2022-09-06T13:43:10;10.20;;;5.70;;
25653;SDS011;13511;48.622;9.230;2022-09-06T13:45:37;14.95;;;5.90;;
25653;SDS011;13511;48.622;9.230;2022-09-06T13:48:03;7.45;;;5.03;;
25653;SDS011;13511;48.622;9.230;2022-09-06T13:50:29;8.93;;;5.88;;
25653;SDS011;13511;48.622;9.230;2022-09-06T13:52:56;10.60;;;5.93;;
25653;SDS011;13511;48.622;9.230;2022-09-06T13:55:22;9.75;;;5.05;;
25653;SDS011;13511;48.622;9.230;2022-09-06T13:57:49;6.60;;;4.93;;
25653;SDS011;13511;48.622;9.230;2022-09-06T14:00:15;8.82;;;5.10;;
25653;SDS011;13511;48.622;9.230;2022-09-06T14:02:41;9.73;;;5.07;;
25653;SDS011;13511;48.622;9.230;2022-09-06T14:05:08;12.82;;;5.47;;
25653;SDS011;13511;48.622;9.230;2022-09-06T14:07:34;11.50;;;5.50;;
25653;SDS011;13511;48.622;9.230;2022-09-06T14:10:00;8.32;;;5.68;;
25653;SDS011;13511;48.622;9.230;2022-09-06T14:12:26;8.02;;;5.15;;
25653;SDS011;13511;48.622;9.230;2022-09-06T14:14:52;8.68;;;5.28;;
25653;SDS011;13511;48.622;9.230;2022-09-06T14:17:19;7.15;;;5.22;;
25653;SDS011;13511;48.622;9.230;2022-09-06T14:19:45;7.47;;;5.20;;
25653;SDS011;13511;48.622;9.230;2022-09-06T14:22:11;10.02;;;5.00;;
25653;SDS011;13511;48.622;9.230;2022-09-06T14:24:37;7.18;;;4.95;;
25653;SDS011;13511;48.622;9.230;2022-09-06T14:27:03;5.68;;;4.72;;
25653;SDS011;13511;48.622;9.230;2022-09-06T14:29:31;7.53;;;4.40;;
25653;SDS011;13511;48.622;9.230;2022-09-06T14:31:58;9.70;;;5.32;;
25653;SDS011;13511;48.622;9.230;2022-09-06T14:34:24;9.05;;;4.68;;
25653;SDS011;13511;48.622;9.230;2022-09-06T14:36:50;7.55;;;4.47;;
25653;SDS011;13511;48.622;9.230;2022-09-06T14:39:16;4.53;;;4.20;;
25653;SDS011;13511;48.622;9.230;2022-09-06T14:41:42;6.57;;;4.60;;
25653;SDS011;13511;48.622;9.230;2022-09-06T14:44:08;11.30;;;4.82;;
25653;SDS011;13511;48.622;9.230;2022-09-06T14:46:34;6.20;;;4.20;;
25653;SDS011;13511;48.622;9.230;2022-09-06T14:49:02;8.38;;;4.70;;
25653;SDS011;13511;48.622;9.230;2022-09-06T14:51:30;8.32;;;4.57;;
25653;SDS011;13511;48.622;9.230;2022-09-06T14:53:57;6.60;;;4.82;;
25653;SDS011;13511;48.622;9.230;2022-09-06T14:56:23;5.85;;;4.88;;
25653;SDS011;13511;48.622;9.230;2022-09-06T14:58:50;8.38;;;4.63;;
25653;SDS011;13511;48.622;9.230;2022-09-06T15:01:19;8.10;;;5.28;;
25653;SDS011;13511;48.622;9.230;2022-09-06T15:03:46;5.75;;;4.70;;
25653;SDS011;13511;48.622;9.230;2022-09-06T15:06:16;5.38;;;4.30;;
25653;SDS011;13511;48.622;9.230;2022-09-06T15:08:42;8.30;;;4.93;;
25653;SDS011;13511;48.622;9.230;2022-09-06T15:11:08;7.30;;;4.50;;
25653;SDS011;13511;48.622;9.230;2022-09-06T15:13:35;7.55;;;4.82;;
25653;SDS011;13511;48.622;9.230;2022-09-06T15:16:02;9.23;;;5.38;;
25653;SDS011;13511;48.622;9.230;2022-09-06T15:18:28;7.28;;;4.80;;
25653;SDS011;13511;48.622;9.230;2022-09-06T15:20:54;6.05;;;4.88;;
25653;SDS011;13511;48.622;9.230;2022-09-06T15:23:20;7.18;;;4.65;;
25653;SDS011;13511;48.622;9.230;2022-09-06T15:25:50;8.38;;;4.68;;
25653;SDS011;13511;48.622;9.230;2022-09-06T15:28:19;7.15;;;4.65;;
25653;SDS011;13511;48.622;9.230;2022-09-06T15:30:45;5.55;;;4.88;;
25653;SDS011;13511;48.622;9.230;2022-09-06T15:33:11;6.97;;;5.00;;
25653;SDS011;13511;48.622;9.230;2022-09-06T15:35:42;6.70;;;4.28;;
25653;SDS011;13511;48.622;9.230;2022-09-06T15:38:09;6.13;;;4.60;;
25653;SDS011;13511;48.622;9.230;2022-09-06T15:40:35;6.38;;;4.85;;
25653;SDS011;13511;48.622;9.230;2022-09-06T15:43:02;4.70;;;4.30;;
25653;SDS011;13511;48.622;9.230;2022-09-06T15:45:28;5.25;;;4.75;;
25653;SDS011;13511;48.622;9.230;2022-09-06T15:47:55;6.43;;;4.63;;
25653;SDS011;13511;48.622;9.230;2022-09-06T15:50:21;11.48;;;5.28;;
25653;SDS011;13511;48.622;9.230;2022-09-06T15:52:48;6.47;;;5.20;;
25653;SDS011;13511;48.622;9.230;2022-09-06T15:55:14;9.77;;;4.60;;
25653;SDS011;13511;48.622;9.230;2022-09-06T15:57:58;5.00;;;4.50;;
25653;SDS011;13511;48.622;9.230;2022-09-06T16:00:24;7.38;;;4.63;;
25653;SDS011;13511;48.622;9.230;2022-09-06T16:02:51;6.15;;;4.65;;
25653;SDS011;13511;48.622;9.230;2022-09-06T16:05:17;4.90;;;4.50;;
25653;SDS011;13511;48.622;9.230;2022-09-06T16:07:43;4.40;;;4.00;;
25653;SDS011;13511;48.622;9.230;2022-09-06T16:10:10;5.45;;;4.55;;
25653;SDS011;13511;48.622;9.230;2022-09-06T16:12:37;7.85;;;4.35;;
25653;SDS011;13511;48.622;9.230;2022-09-06T16:15:03;10.65;;;4.07;;
25653;SDS011;13511;48.622;9.230;2022-09-06T16:17:29;5.65;;;4.30;;
25653;SDS011;13511;48.622;9.230;2022-09-06T16:19:56;8.23;;;4.68;;
25653;SDS011;13511;48.622;9.230;2022-09-06T16:22:23;8.38;;;4.38;;
25653;SDS011;13511;48.622;9.230;2022-09-06T16:24:50;6.07;;;3.90;;